Time;durP1;ratioP1;P1;durP2;ratioP2;P2;SDS_P1;SDS_P2;PMS_P1;PMS_P2;Temp;Humidity;BMP_temperature;BMP_pressure;BME280_temperature;BME280_humidity;BME280_pressure;Samples;Min_cycle;Max_cycle;Signal;HPM_P1;HPM_P2
2022/04/08 00:01:25;;;;;;;;;0.25;0.25;;;;;10.65;44.38;100002.97;5019464;28;45861;-60
2022/04/08 00:03:52;;;;;;;;;0.50;0.00;;;;;10.61;44.08;100001.34;5009768;28;45400;-60
2022/04/08 00:06:17;;;;;;;;;1.75;1.00;;;;;10.61;44.30;100006.59;5006845;28;45329;-60
2022/04/08 00:08:44;;;;;;;;;1.00;1.00;;;;;10.62;44.35;100010.94;5021615;28;45507;-60
2022/04/08 00:11:09;;;;;;;;;2.50;1.00;;;;;10.61;44.55;100019.72;5022656;28;46041;-60
2022/04/08 00:13:35;;;;;;;;;1.00;0.75;;;;;10.60;44.53;100010.09;5023119;28;45263;-60
2022/04/08 00:16:00;;;;;;;;;0.25;0.25;;;;;10.58;44.52;100009.31;5023029;28;45455;-60
2022/04/08 00:18:25;;;;;;;;;1.00;1.00;;;;;10.56;44.45;100009.34;5023257;28;45363;-60
2022/04/08 00:20:51;;;;;;;;;1.00;0.00;;;;;10.54;44.58;100016.41;5022603;28;45305;-60
2022/04/08 00:23:16;;;;;;;;;0.00;0.00;;;;;10.58;44.51;100011.94;5022835;28;45227;-60
2022/04/08 00:25:42;;;;;;;;;1.75;0.75;;;;;10.55;44.66;99996.22;5012345;28;45448;-60
2022/04/08 00:28:07;;;;;;;;;1.75;0.25;;;;;10.59;44.78;99992.66;5022948;28;45249;-60
2022/04/08 00:30:33;;;;;;;;;2.00;0.00;;;;;10.60;44.73;99996.97;5022474;28;46256;-60
2022/04/08 00:32:59;;;;;;;;;1.00;0.00;;;;;10.59;44.72;99991.75;5022859;28;45383;-60
2022/04/08 00:35:25;;;;;;;;;0.25;0.25;;;;;10.58;44.64;99996.16;5022717;28;45399;-60
2022/04/08 00:37:51;;;;;;;;;2.00;1.00;;;;;10.59;44.70;99987.41;5022676;28;45297;-60
2022/04/08 00:40:17;;;;;;;;;1.00;0.75;;;;;10.57;44.86;99994.44;5022186;28;45246;-60
2022/04/08 00:42:43;;;;;;;;;1.00;1.00;;;;;10.56;44.92;99997.97;5022801;28;45379;-60
2022/04/08 00:45:09;;;;;;;;;4.00;0.00;;;;;10.56;44.72;99997.97;5022754;28;45210;-60
2022/04/08 00:47:36;;;;;;;;;1.25;1.00;;;;;10.56;44.96;99993.59;5022445;28;45316;-60
2022/04/08 00:50:03;;;;;;;;;2.00;1.00;;;;;10.55;44.96;99989.22;5022012;28;46229;-60
2022/04/08 00:52:31;;;;;;;;;1.00;1.00;;;;;10.55;45.06;99985.72;5022329;28;45309;-60
2022/04/08 00:54:57;;;;;;;;;0.50;0.50;;;;;10.55;45.06;99988.34;5021944;28;45468;-60
2022/04/08 00:57:23;;;;;;;;;0.00;0.00;;;;;10.54;45.01;99982.25;5022399;28;45506;-60
2022/04/08 00:59:49;;;;;;;;;0.25;0.25;;;;;10.57;44.95;99978.69;5022144;28;46406;-60
2022/04/08 01:02:15;;;;;;;;;0.50;0.00;;;;;10.54;45.01;99963.84;5022181;28;45232;-60
2022/04/08 01:04:40;;;;;;;;;0.00;0.00;;;;;10.59;44.85;99981.25;5007006;28;45339;-60
2022/04/08 01:07:06;;;;;;;;;0.00;0.00;;;;;10.59;45.14;99970.75;5014912;28;45306;-60
2022/04/08 01:09:32;;;;;;;;;0.00;0.00;;;;;10.57;44.99;99963.75;5021711;28;46211;-60
2022/04/08 01:11:57;;;;;;;;;1.00;1.00;;;;;10.51;45.14;99958.66;5022183;28;45251;-60
2022/04/08 01:14:22;;;;;;;;;1.25;0.00;;;;;10.50;45.12;99956.09;5022340;28;45241;-60
2022/04/08 01:16:48;;;;;;;;;0.00;0.00;;;;;10.51;45.38;99960.44;5004079;28;45789;-60
2022/04/08 01:19:14;;;;;;;;;0.50;0.00;;;;;10.51;45.13;99952.56;5020608;28;47040;-60
2022/04/08 01:21:39;;;;;;;;;1.50;1.50;;;;;10.49;45.44;99954.34;5022279;28;45430;-60
2022/04/08 01:24:09;;;;;;;;;1.00;1.00;;;;;10.46;45.26;99946.56;5019511;28;45242;-60
2022/04/08 01:26:34;;;;;;;;;1.25;0.25;;;;;10.47;45.46;99956.19;5015196;28;45404;-60
2022/04/08 01:29:00;;;;;;;;;2.75;1.00;;;;;10.44;45.44;99954.50;5021753;28;46009;-60
2022/04/08 01:31:29;;;;;;;;;3.25;1.25;;;;;10.42;45.35;99945.78;5022048;28;45233;-60
2022/04/08 01:33:54;;;;;;;;;1.25;1.00;;;;;10.44;45.34;99944.00;5004627;28;45398;-60
2022/04/08 01:36:20;;;;;;;;;0.50;0.25;;;;;10.46;45.53;99957.09;5021619;28;45292;-60
2022/04/08 01:38:45;;;;;;;;;1.00;0.75;;;;;10.39;45.59;99938.84;5020216;28;46118;-60
2022/04/08 01:41:10;;;;;;;;;0.50;0.00;;;;;10.44;45.67;99945.75;5020388;28;45333;-60
2022/04/08 01:43:36;;;;;;;;;0.75;0.50;;;;;10.45;45.59;99939.59;5021972;28;45377;-60
2022/04/08 01:46:01;;;;;;;;;2.00;1.00;;;;;10.43;45.52;99930.88;5021732;28;45310;-60
2022/04/08 01:48:27;;;;;;;;;1.00;0.75;;;;;10.47;45.82;99936.03;5021579;28;46201;-60
2022/04/08 01:50:52;;;;;;;;;0.50;0.50;;;;;10.47;45.86;99933.41;5020305;28;45850;-60
2022/04/08 01:53:18;;;;;;;;;1.75;1.00;;;;;10.46;45.75;99933.44;5021286;28;45459;-60
2022/04/08 01:55:44;;;;;;;;;1.00;1.00;;;;;10.48;45.77;99935.13;5021499;28;45227;-60
2022/04/08 01:58:10;;;;;;;;;2.00;1.00;;;;;10.49;45.70;99935.97;5021429;28;46381;-60
2022/04/08 02:00:36;;;;;;;;;1.00;0.75;;;;;10.47;46.07;99935.16;5021197;28;45355;-60
2022/04/08 02:03:01;;;;;;;;;1.50;0.00;;;;;10.46;45.78;99939.53;5019540;28;45467;-60
2022/04/08 02:05:27;;;;;;;;;4.25;1.75;;;;;10.49;45.80;99930.72;5001788;28;45475;-60
2022/04/08 02:07:53;;;;;;;;;3.00;2.00;;;;;10.47;45.86;99925.50;5019949;28;46116;-60
2022/04/08 02:10:19;;;;;;;;;2.00;0.00;;;;;10.51;45.97;99924.50;5020083;28;45366;-60
2022/04/08 02:12:44;;;;;;;;;1.25;0.25;;;;;10.52;45.77;99934.13;5021132;28;45297;-60
2022/04/08 02:15:10;;;;;;;;;2.75;0.75;;;;;10.51;45.99;99924.50;5021194;28;45356;-60
2022/04/08 02:17:35;;;;;;;;;0.00;0.00;;;;;10.51;45.97;99927.16;5020996;28;45266;-60
2022/04/08 02:20:01;;;;;;;;;1.00;1.00;;;;;10.53;46.23;99929.75;5021127;28;45462;-60
2022/04/08 02:22:29;;;;;;;;;1.25;0.00;;;;;10.50;46.06;99925.44;5021187;28;45534;-60
2022/04/08 02:24:56;;;;;;;;;3.00;3.00;;;;;10.53;46.27;99917.47;5016047;28;45451;-60
2022/04/08 02:27:23;;;;;;;;;1.25;1.00;;;;;10.50;46.17;99912.31;5020248;28;47593;-60
2022/04/08 02:29:49;;;;;;;;;6.50;3.75;;;;;10.52;46.29;99910.50;5020108;28;45352;-60
2022/04/08 02:32:14;;;;;;;;;0.75;0.75;;;;;10.51;46.08;99910.53;5020971;28;45412;-60
2022/04/08 02:34:39;;;;;;;;;3.50;1.75;;;;;10.53;45.90;99917.47;5021105;28;45348;-60
2022/04/08 02:37:06;;;;;;;;;1.00;0.00;;;;;10.51;46.21;99913.16;5019496;28;45841;-60
2022/04/08 02:39:31;;;;;;;;;2.00;2.00;;;;;10.48;46.43;99906.22;5020527;28;45478;-60
2022/04/08 02:41:57;;;;;;;;;1.00;1.00;;;;;10.50;46.49;99907.06;5020783;28;45321;-60
2022/04/08 02:44:23;;;;;;;;;1.75;0.00;;;;;10.51;46.41;99906.13;5020833;28;45253;-60
2022/04/08 02:46:48;;;;;;;;;3.00;0.00;;;;;10.52;46.24;99899.97;5020472;28;46821;-60
2022/04/08 02:49:13;;;;;;;;;0.00;0.00;;;;;10.51;46.54;99893.00;5019462;28;45314;-60
2022/04/08 02:51:39;;;;;;;;;0.75;0.75;;;;;10.54;46.36;99899.94;5020689;28;45319;-60
2022/04/08 02:54:04;;;;;;;;;2.50;1.50;;;;;10.46;46.48;99881.75;5020434;28;45403;-60
2022/04/08 02:56:29;;;;;;;;;1.00;1.00;;;;;10.57;46.44;99899.84;5020441;28;45266;-60
2022/04/08 02:58:57;;;;;;;;;1.00;1.00;;;;;10.57;46.58;99882.31;5019338;28;45369;-60
2022/04/08 03:01:23;;;;;;;;;2.00;2.00;;;;;10.57;46.54;99890.19;5020551;28;45258;-60
2022/04/08 03:03:48;;;;;;;;;2.00;2.00;;;;;10.57;46.63;99890.19;5012157;28;45382;-60
2022/04/08 03:06:13;;;;;;;;;0.00;0.00;;;;;10.61;46.52;99890.97;5005043;28;46985;-60
2022/04/08 03:08:39;;;;;;;;;4.00;0.75;;;;;10.60;46.68;99891.88;5020339;28;45352;-60
2022/04/08 03:11:04;;;;;;;;;2.25;1.00;;;;;10.62;47.08;99881.34;5020245;28;45564;-60
2022/04/08 03:13:30;;;;;;;;;0.75;0.75;;;;;10.61;46.67;99882.25;5020426;28;45269;-60
2022/04/08 03:15:55;;;;;;;;;4.75;0.50;;;;;10.60;46.87;99876.13;5020049;28;45433;-60
2022/04/08 03:18:20;;;;;;;;;0.00;0.00;;;;;10.61;46.73;99875.22;5020500;28;45364;-60
2022/04/08 03:20:46;;;;;;;;;1.00;1.00;;;;;10.57;46.67;99871.81;5020138;28;45377;-60
2022/04/08 03:23:12;;;;;;;;;1.00;1.00;;;;;10.61;46.89;99874.38;5020150;28;45364;-60
2022/04/08 03:25:37;;;;;;;;;1.67;0.00;;;;;10.60;46.94;99872.63;5010541;28;46354;-60
2022/04/08 03:28:02;;;;;;;;;2.00;1.25;;;;;10.59;47.21;99877.03;5020127;28;45328;-61
2022/04/08 03:30:28;;;;;;;;;1.00;1.00;;;;;10.60;46.92;99865.59;5020039;28;45217;-60
2022/04/08 03:32:54;;;;;;;;;1.25;1.00;;;;;10.60;47.05;99862.13;5020102;28;45270;-60
2022/04/08 03:35:20;;;;;;;;;1.00;1.00;;;;;10.56;47.43;99859.59;5019833;28;46194;-60
2022/04/08 03:37:45;;;;;;;;;2.00;0.00;;;;;10.56;47.49;99861.34;5019787;28;45220;-60
2022/04/08 03:40:11;;;;;;;;;1.25;1.00;;;;;10.57;47.29;99860.44;5018455;28;45442;-60
2022/04/08 03:42:37;;;;;;;;;2.00;0.75;;;;;10.56;47.39;99861.34;5020053;28;45499;-60
2022/04/08 03:45:03;;;;;;;;;3.50;1.75;;;;;10.58;47.60;99851.69;5019753;28;46274;-60
2022/04/08 03:47:28;;;;;;;;;1.75;1.75;;;;;10.57;47.60;99852.56;5019845;28;45387;-60
2022/04/08 03:49:53;;;;;;;;;2.00;1.00;;;;;10.47;47.73;99833.56;5019868;28;45463;-60
2022/04/08 03:52:19;;;;;;;;;1.00;1.00;;;;;10.54;47.86;99840.38;5019836;28;45407;-60
2022/04/08 03:54:44;;;;;;;;;3.50;2.00;;;;;10.53;48.02;99835.19;5019258;28;45316;-60
2022/04/08 03:57:10;;;;;;;;;2.00;2.00;;;;;10.52;48.15;99825.56;5019818;28;45343;-60
2022/04/08 03:59:37;;;;;;;;;5.50;1.00;;;;;10.50;48.11;99820.38;5018456;28;45364;-60
2022/04/08 04:02:05;;;;;;;;;1.50;1.00;;;;;10.49;48.32;99810.75;5019592;28;45435;-60
2022/04/08 04:04:31;;;;;;;;;0.75;0.75;;;;;10.52;48.16;99813.28;5006231;28;46324;-59
2022/04/08 04:06:56;;;;;;;;;2.75;0.00;;;;;10.51;48.18;99801.06;5009820;28;45243;-60
2022/04/08 04:09:22;;;;;;;;;2.75;1.50;;;;;10.51;48.26;99802.84;5019310;28;45242;-59
2022/04/08 04:11:47;;;;;;;;;0.00;0.00;;;;;10.50;48.38;99795.84;5019580;28;45273;-60
2022/04/08 04:14:12;;;;;;;;;0.75;0.75;;;;;10.48;48.64;99795.06;5019476;28;45361;-59
2022/04/08 04:16:38;;;;;;;;;0.25;0.00;;;;;10.51;48.63;99785.28;5019551;28;45345;-60
2022/04/08 04:19:04;;;;;;;;;1.00;1.00;;;;;10.51;48.47;99779.19;5019451;28;45511;-60
2022/04/08 04:21:29;;;;;;;;;3.00;1.50;;;;;10.52;48.76;99770.41;5019433;28;45327;-60
2022/04/08 04:23:54;;;;;;;;;7.75;6.50;;;;;10.53;48.62;99766.88;5018034;28;45994;-59
2022/04/08 04:26:20;;;;;;;;;4.00;3.00;;;;;10.54;48.52;99763.31;5010253;28;45321;-60
2022/04/08 04:28:45;;;;;;;;;3.75;0.00;;;;;10.55;48.89;99758.03;5019390;28;45524;-59
2022/04/08 04:31:10;;;;;;;;;2.75;1.00;;;;;10.50;48.80;99740.69;5018149;28;45801;-60
2022/04/08 04:33:36;;;;;;;;;2.00;2.00;;;;;10.59;48.65;99743.06;5019186;28;45915;-60
2022/04/08 04:36:01;;;;;;;;;1.00;1.00;;;;;10.62;48.87;99750.00;5017800;28;45664;-60
2022/04/08 04:38:27;;;;;;;;;2.00;2.00;;;;;10.65;48.83;99726.22;5017826;28;45258;-59
2022/04/08 04:40:52;;;;;;;;;1.25;1.25;;;;;10.65;49.04;99721.81;5019127;28;45361;-60
2022/04/08 04:43:17;;;;;;;;;3.00;1.50;;;;;10.66;48.96;99715.66;5019139;28;45977;-60
2022/04/08 04:45:43;;;;;;;;;4.25;1.00;;;;;10.64;48.99;99707.00;5019083;28;45415;-60
2022/04/08 04:48:11;;;;;;;;;1.00;1.00;;;;;10.68;49.25;99713.00;5019115;28;45254;-60
2022/04/08 04:50:37;;;;;;;;;1.50;1.00;;;;;10.69;49.27;99707.72;5019036;28;45500;-60
2022/04/08 04:53:03;;;;;;;;;0.50;0.50;;;;;10.69;49.22;99701.56;5021130;28;45435;-61
2022/04/08 04:55:28;;;;;;;;;0.00;0.00;;;;;10.67;49.23;99688.50;5021096;28;45517;-61
2022/04/08 04:57:54;;;;;;;;;2.50;1.50;;;;;10.67;49.38;99683.22;5022451;28;45439;-60
2022/04/08 05:00:20;;;;;;;;;2.00;2.00;;;;;10.69;49.19;99676.19;5022191;28;45274;-60
2022/04/08 05:02:46;;;;;;;;;2.75;2.00;;;;;10.69;49.34;99673.53;5021908;28;46262;-61
2022/04/08 05:05:11;;;;;;;;;1.00;1.00;;;;;10.69;49.33;99664.78;5002923;28;45413;-60
2022/04/08 05:07:37;;;;;;;;;2.50;2.00;;;;;10.68;49.49;99653.44;5019193;28;45281;-59
2022/04/08 05:10:04;;;;;;;;;2.00;2.00;;;;;10.68;49.22;99661.31;5022074;28;45570;-60
2022/04/08 05:12:29;;;;;;;;;1.00;1.00;;;;;10.68;49.21;99648.16;5021930;28;46184;-60
2022/04/08 05:14:55;;;;;;;;;2.50;0.75;;;;;10.59;49.14;99627.47;5020874;28;45441;-61
2022/04/08 05:17:20;;;;;;;;;1.00;1.00;;;;;10.67;49.44;99627.22;5022133;28;45333;-60
2022/04/08 05:19:46;;;;;;;;;1.00;1.00;;;;;10.62;49.37;99616.00;5022187;28;45329;-61
2022/04/08 05:22:12;;;;;;;;;2.00;1.50;;;;;10.66;49.51;99618.44;5021865;28;46407;-59
2022/04/08 05:24:37;;;;;;;;;2.25;1.00;;;;;10.65;49.48;99611.47;5014982;28;45230;-59
2022/04/08 05:27:03;;;;;;;;;5.50;2.75;;;;;10.65;49.87;99613.25;5018635;28;45230;-58
2022/04/08 05:29:28;;;;;;;;;2.00;2.00;;;;;10.65;49.54;99611.47;5022016;28;45629;-65
2022/04/08 05:31:54;;;;;;;;;2.50;2.00;;;;;10.66;49.76;99609.72;5021695;28;46070;-58
2022/04/08 05:34:19;;;;;;;;;2.00;2.00;;;;;10.65;49.79;99608.84;5021721;28;45332;-66
2022/04/08 05:36:44;;;;;;;;;2.25;1.50;;;;;10.65;49.79;99600.97;5015728;28;45243;-58
2022/04/08 05:39:10;;;;;;;;;5.25;3.00;;;;;10.68;49.87;99598.25;4987861;28;45326;-58
2022/04/08 05:41:35;;;;;;;;;1.25;1.25;;;;;10.67;49.71;99591.28;5005114;28;46265;-59
2022/04/08 05:44:01;;;;;;;;;2.75;2.00;;;;;10.68;49.99;99593.00;5010966;28;45452;-61
2022/04/08 05:46:26;;;;;;;;;2.00;2.00;;;;;10.69;49.86;99583.34;5000698;28;45479;-58
2022/04/08 05:48:52;;;;;;;;;4.00;2.75;;;;;10.68;49.99;99577.22;5010181;28;45258;-48
2022/04/08 05:51:17;;;;;;;;;5.25;2.75;;;;;10.69;49.99;99578.06;5005661;28;46440;-62
2022/04/08 05:53:42;;;;;;;;;3.25;2.00;;;;;10.68;50.03;99566.72;5006810;28;45392;-62
2022/04/08 05:56:08;;;;;;;;;2.00;2.00;;;;;10.66;50.09;99560.66;5009994;28;45922;-62
2022/04/08 05:58:33;;;;;;;;;3.50;3.50;;;;;10.67;50.03;99565.00;5016329;28;45324;-63
2022/04/08 06:00:59;;;;;;;;;5.00;3.25;;;;;10.66;50.29;99552.75;5008073;28;45864;-62
2022/04/08 06:03:25;;;;;;;;;2.25;2.25;;;;;10.67;50.32;99549.22;5007688;28;45500;-62
2022/04/08 06:05:50;;;;;;;;;5.75;3.00;;;;;10.66;50.18;99539.63;5003635;28;45180;-61
2022/04/08 06:08:16;;;;;;;;;4.25;1.75;;;;;10.66;50.30;99542.25;5021213;28;45507;-61
2022/04/08 06:10:41;;;;;;;;;4.75;4.25;;;;;10.67;50.46;99537.88;5020929;28;46290;-61
2022/04/08 06:13:06;;;;;;;;;3.50;3.00;;;;;10.64;50.56;99528.34;5010241;28;45144;-62
2022/04/08 06:15:32;;;;;;;;;4.25;1.50;;;;;10.65;50.56;99514.25;5036500;28;45664;-61
2022/04/08 06:17:58;;;;;;;;;3.00;2.25;;;;;10.65;50.48;99508.16;5021063;28;45357;-61
2022/04/08 06:20:24;;;;;;;;;3.25;2.25;;;;;10.65;50.54;99501.13;5019568;28;47229;-62
2022/04/08 06:22:50;;;;;;;;;5.00;3.00;;;;;10.65;50.52;99498.50;5019601;28;46157;-61
2022/04/08 06:25:20;;;;;;;;;4.25;3.75;;;;;10.64;50.77;99496.81;5011197;28;45337;-62
2022/04/08 06:27:58;;;;;;;;;4.25;2.00;;;;;10.62;50.55;99490.75;5021086;28;45242;-61
2022/04/08 06:30:24;;;;;;;;;3.00;2.00;;;;;10.62;50.74;99480.22;5019296;28;46909;-63
2022/04/08 06:32:50;;;;;;;;;2.75;2.75;;;;;10.61;50.79;99472.41;5020824;28;45297;-61
2022/04/08 06:35:15;;;;;;;;;4.00;4.00;;;;;10.60;50.37;99465.44;5020802;28;45291;-62
2022/04/08 06:37:40;;;;;;;;;5.75;4.25;;;;;10.60;50.75;99453.13;5019119;28;45520;-63
2022/04/08 06:40:10;;;;;;;;;6.75;4.25;;;;;10.56;50.74;99447.16;5019818;28;45309;-62
2022/04/08 06:42:36;;;;;;;;;4.00;3.00;;;;;10.58;50.86;99452.34;5019293;28;45287;-62
2022/04/08 06:45:03;;;;;;;;;3.50;2.75;;;;;10.56;50.98;99452.41;5020533;28;45255;-62
2022/04/08 06:47:29;;;;;;;;;6.25;3.00;;;;;10.55;51.07;99460.31;5020346;28;45399;-62
2022/04/08 06:49:57;;;;;;;;;2.75;2.75;;;;;10.52;50.97;99450.78;5020278;28;46282;-62
2022/04/08 06:52:23;;;;;;;;;4.75;4.75;;;;;10.54;51.08;99454.22;5020545;28;45412;-62
2022/04/08 06:54:48;;;;;;;;;3.75;2.75;;;;;10.53;51.12;99443.78;5020372;28;45308;-62
2022/04/08 06:57:14;;;;;;;;;5.75;2.75;;;;;10.52;51.05;99437.66;5020421;28;45389;-62
2022/04/08 06:59:39;;;;;;;;;5.00;3.25;;;;;10.50;51.28;99439.50;5020512;28;45314;-62
2022/04/08 07:02:05;;;;;;;;;2.00;2.00;;;;;10.50;51.29;99433.38;5020390;28;45203;-62
2022/04/08 07:04:31;;;;;;;;;2.75;2.75;;;;;10.50;51.39;99442.13;5017790;28;45223;-62
2022/04/08 07:06:56;;;;;;;;;3.00;3.00;;;;;10.48;51.35;99445.72;5020241;28;45238;-62
2022/04/08 07:09:22;;;;;;;;;2.50;1.00;;;;;10.46;51.38;99447.53;5019955;28;46157;-62
2022/04/08 07:11:47;;;;;;;;;3.75;2.75;;;;;10.49;51.49;99453.53;5020215;28;45179;-62
2022/04/08 07:14:13;;;;;;;;;4.75;2.75;;;;;10.49;51.36;99457.91;5020143;28;45754;-62
2022/04/08 07:16:41;;;;;;;;;2.00;2.00;;;;;10.47;51.40;99451.88;5020035;28;45302;-62
2022/04/08 07:19:06;;;;;;;;;5.50;3.25;;;;;10.44;51.39;99442.31;5020090;28;45428;-63
2022/04/08 07:21:32;;;;;;;;;3.75;3.25;;;;;10.44;51.34;99441.44;5019978;28;45359;-62
2022/04/08 07:23:57;;;;;;;;;2.00;2.00;;;;;10.39;51.41;99424.09;5020078;28;45343;-63
2022/04/08 07:26:22;;;;;;;;;2.25;2.25;;;;;10.42;51.65;99430.16;5019899;28;45510;-61
2022/04/08 07:28:48;;;;;;;;;3.75;3.75;;;;;10.39;51.60;99405.72;5020326;28;46107;-62
2022/04/08 07:31:14;;;;;;;;;4.50;4.50;;;;;10.42;51.49;99407.38;5019927;28;45241;-62
2022/04/08 07:33:39;;;;;;;;;4.75;3.50;;;;;10.42;51.97;99398.66;5020163;28;45472;-62
2022/04/08 07:36:05;;;;;;;;;2.50;2.50;;;;;10.43;51.65;99395.09;5019910;28;45494;-62
2022/04/08 07:38:31;;;;;;;;;3.00;2.00;;;;;10.44;51.89;99383.66;5017432;28;46070;-61
2022/04/08 07:40:59;;;;;;;;;2.75;2.00;;;;;10.42;51.66;99375.00;5008232;28;45235;-61
2022/04/08 07:43:25;;;;;;;;;3.00;2.00;;;;;10.40;51.84;99364.53;5020021;28;45423;-61
2022/04/08 07:45:50;;;;;;;;;4.00;3.00;;;;;10.40;51.61;99351.41;5019836;28;45383;-61
2022/04/08 07:48:16;;;;;;;;;3.25;3.25;;;;;10.42;51.81;99346.13;5019758;28;45412;-62
2022/04/08 07:50:42;;;;;;;;;5.25;4.00;;;;;10.40;51.99;99340.91;5013938;28;45301;-62
2022/04/08 07:53:08;;;;;;;;;4.50;4.00;;;;;10.38;51.51;99322.56;5019655;28;45368;-63
2022/04/08 07:55:33;;;;;;;;;5.00;3.75;;;;;10.38;51.79;99304.19;5019822;28;45416;-62
2022/04/08 07:57:59;;;;;;;;;4.25;2.25;;;;;10.36;52.06;99308.66;5019407;28;46083;-62
2022/04/08 08:00:27;;;;;;;;;5.00;3.00;;;;;10.33;52.08;99311.34;5018360;28;45176;-63
2022/04/08 08:02:54;;;;;;;;;6.00;3.50;;;;;10.35;52.10;99330.56;5019473;28;45375;-62
2022/04/08 08:05:22;;;;;;;;;4.75;3.75;;;;;10.34;52.30;99334.09;5018364;28;45404;-62
2022/04/08 08:07:50;;;;;;;;;5.00;5.00;;;;;10.33;52.20;99324.47;5017780;28;45364;-62
2022/04/08 08:10:24;;;;;;;;;5.75;4.25;;;;;10.32;52.52;99316.66;5018032;28;45267;-63
2022/04/08 08:12:51;;;;;;;;;5.75;3.50;;;;;10.30;52.23;99302.72;5019434;28;45233;-62
2022/04/08 08:15:18;;;;;;;;;5.25;3.50;;;;;10.30;52.13;99303.59;5019688;28;45314;-62
2022/04/08 08:17:44;;;;;;;;;6.25;5.75;;;;;10.30;52.14;99282.59;5019184;28;45412;-62
2022/04/08 08:20:13;;;;;;;;;2.50;2.25;;;;;10.28;52.21;99263.41;5019248;28;45297;-62
2022/04/08 08:22:38;;;;;;;;;6.00;5.75;;;;;10.26;52.29;99254.72;5017790;28;45273;-62
2022/04/08 08:25:06;;;;;;;;;2.00;2.00;;;;;10.22;52.22;99253.13;5017880;28;45261;-61
2022/04/08 08:27:48;;;;;;;;;1.75;1.00;;;;;10.19;52.10;99240.13;5020783;28;46241;-62
2022/04/08 08:30:16;;;;;;;;;3.50;3.50;;;;;10.17;52.39;99241.94;5021311;28;45289;-62
2022/04/08 08:32:47;;;;;;;;;3.50;2.00;;;;;10.14;52.22;99236.78;5022976;28;45317;-61
2022/04/08 08:35:14;;;;;;;;;3.50;2.00;;;;;10.11;52.23;99231.66;5022574;28;45345;-61
2022/04/08 08:37:41;;;;;;;;;4.25;2.00;;;;;10.04;52.36;99225.78;5022397;28;46199;-61
2022/04/08 08:40:08;;;;;;;;;4.25;2.75;;;;;10.05;52.22;99217.84;5008182;28;45237;-61
2022/04/08 08:42:38;;;;;;;;;2.25;1.75;;;;;10.02;52.35;99214.47;5022671;28;45401;-61
2022/04/08 08:45:06;;;;;;;;;3.50;2.00;;;;;10.01;52.43;99208.38;5022469;28;45529;-61
2022/04/08 08:47:32;;;;;;;;;3.00;2.75;;;;;9.99;52.55;99212.81;5021046;28;46375;-61
2022/04/08 08:49:58;;;;;;;;;5.75;4.75;;;;;9.97;52.45;99212.00;5016344;28;45384;-61
2022/04/08 08:52:24;;;;;;;;;7.75;5.25;;;;;9.97;52.59;99213.78;5022652;28;45349;-60
2022/04/08 08:54:50;;;;;;;;;6.00;5.00;;;;;9.95;52.64;99208.59;5022214;28;45416;-61
2022/04/08 08:57:17;;;;;;;;;3.75;3.75;;;;;9.95;52.65;99198.09;5022586;28;45454;-61
2022/04/08 08:59:44;;;;;;;;;7.00;3.25;;;;;9.95;52.39;99191.97;5022083;28;45317;-61
2022/04/08 09:02:12;;;;;;;;;5.50;3.50;;;;;9.95;52.56;99187.59;5022491;28;45401;-61
2022/04/08 09:04:41;;;;;;;;;3.75;3.75;;;;;9.94;52.64;99180.63;5021962;28;45427;-60
2022/04/08 09:07:28;;;;;;;;;5.25;4.75;;;;;9.94;52.49;99172.78;5020848;28;48339;-60
2022/04/08 09:09:56;;;;;;;;;4.00;4.00;;;;;9.93;52.54;99156.16;5021966;28;45238;-61
2022/04/08 09:12:27;;;;;;;;;3.50;3.50;;;;;9.94;52.56;99138.66;5021072;28;45339;-60
2022/04/08 09:15:00;;;;;;;;;3.50;2.50;;;;;9.94;52.50;99130.78;5022195;28;45324;-60
2022/04/08 09:17:27;;;;;;;;;3.75;3.00;;;;;9.91;52.47;99123.00;5021929;28;46281;-60
2022/04/08 09:19:58;;;;;;;;;6.00;3.00;;;;;9.88;52.76;99121.34;5022042;28;45334;-61
2022/04/08 09:22:34;;;;;;;;;4.00;4.00;;;;;9.87;52.88;99117.03;5021788;28;45294;-60
2022/04/08 09:25:10;;;;;;;;;4.50;4.50;;;;;9.87;52.79;99113.53;5022009;28;45351;-61
2022/04/08 09:27:40;;;;;;;;;6.00;4.75;;;;;9.84;52.63;99100.56;5021575;28;45403;-60
2022/04/08 09:30:07;;;;;;;;;5.00;5.00;;;;;9.84;52.77;99092.69;5021961;28;45518;-59
2022/04/08 09:32:33;;;;;;;;;3.25;3.25;;;;;9.82;52.87;99071.72;5021743;28;45299;-60
2022/04/08 09:34:58;;;;;;;;;5.50;5.50;;;;;9.81;52.98;99069.16;5020399;28;45515;-59
2022/04/08 09:37:24;;;;;;;;;6.00;4.00;;;;;9.80;52.69;99067.47;5021151;28;45931;-60
2022/04/08 09:39:57;;;;;;;;;6.50;5.00;;;;;9.77;52.91;99065.81;5008595;28;45569;-61
2022/04/08 09:42:44;;;;;;;;;6.00;5.50;;;;;9.75;52.87;99068.50;5008991;28;45231;-60
2022/04/08 09:45:11;;;;;;;;;4.00;3.75;;;;;9.73;52.97;99072.94;5021330;28;45580;-61
2022/04/08 09:47:37;;;;;;;;;5.00;3.25;;;;;9.73;52.84;99093.06;5021485;28;46649;-60
2022/04/08 09:50:03;;;;;;;;;2.75;2.25;;;;;9.69;52.99;99089.69;5015773;28;45333;-61
2022/04/08 09:52:29;;;;;;;;;2.00;2.00;;;;;9.69;52.94;99105.44;5020166;28;45294;-60
2022/04/08 09:54:58;;;;;;;;;4.50;3.00;;;;;9.68;53.09;99106.34;5020076;28;45435;-60
2022/04/08 09:57:24;;;;;;;;;2.00;2.00;;;;;9.63;53.14;99107.44;5020161;28;47371;-60
2022/04/08 09:59:57;;;;;;;;;3.75;3.25;;;;;9.66;53.28;99112.56;5021324;28;45352;-59
2022/04/08 10:02:26;;;;;;;;;5.75;3.00;;;;;9.65;53.05;99102.97;5021645;28;45297;-60
2022/04/08 10:04:54;;;;;;;;;4.75;3.00;;;;;9.64;53.29;99103.91;5021274;28;45431;-60
2022/04/08 10:07:21;;;;;;;;;5.25;4.00;;;;;9.63;53.40;99100.41;5021332;28;46403;-60
2022/04/08 10:10:12;;;;;;;;;14.25;12.00;;;;;9.63;53.35;99084.69;5020922;28;45308;-60
2022/04/08 10:13:13;;;;;;;;;3.25;2.50;;;;;9.64;53.20;99067.19;5019907;28;45262;-60
2022/04/08 10:15:43;;;;;;;;;2.25;1.50;;;;;9.64;53.35;99052.31;4996708;28;45380;-60
2022/04/08 10:18:08;;;;;;;;;5.00;5.00;;;;;9.65;53.38;99067.13;5021146;28;45297;-60
2022/04/08 10:20:37;;;;;;;;;3.50;3.50;;;;;9.64;53.51;99065.41;5020849;28;45162;-60
2022/04/08 10:23:05;;;;;;;;;4.75;3.00;;;;;9.67;53.30;99090.69;5021198;28;45267;-59
2022/04/08 10:25:39;;;;;;;;;3.50;3.25;;;;;9.68;53.23;99110.75;5019576;28;45479;-60
2022/04/08 10:28:06;;;;;;;;;3.25;3.25;;;;;9.66;53.58;99087.22;5020813;28;46362;-60
2022/04/08 10:30:43;;;;;;;;;6.00;5.00;;;;;9.66;53.53;99065.34;5020850;28;45352;-60
2022/04/08 10:33:09;;;;;;;;;3.00;3.00;;;;;9.61;53.71;99049.81;5021019;28;45220;-59
2022/04/08 10:35:37;;;;;;;;;2.75;2.75;;;;;9.60;53.47;99062.03;5020813;28;45284;-60
2022/04/08 10:38:05;;;;;;;;;3.50;3.50;;;;;9.59;53.86;99046.38;5020553;28;46439;-60
2022/04/08 10:40:33;;;;;;;;;3.00;2.25;;;;;9.60;53.71;99059.41;5006622;28;45529;-60
2022/04/08 10:43:00;;;;;;;;;2.50;2.50;;;;;9.60;53.40;99069.91;5020962;28;45225;-60
2022/04/08 10:45:26;;;;;;;;;3.75;3.00;;;;;9.60;53.77;99077.78;5020619;28;45418;-60
2022/04/08 10:47:51;;;;;;;;;3.50;2.50;;;;;9.61;53.66;99065.53;5019175;28;48176;-59
2022/04/08 10:50:32;;;;;;;;;4.50;4.00;;;;;9.63;53.75;99037.47;5013923;28;45201;-60
2022/04/08 10:53:09;;;;;;;;;5.00;5.00;;;;;9.65;53.53;99008.56;5020527;28;45336;-60
2022/04/08 10:55:50;;;;;;;;;5.00;4.25;;;;;9.63;53.88;98987.63;5020596;28;45493;-59
2022/04/08 10:58:40;;;;;;;;;4.75;4.75;;;;;9.69;53.78;98986.56;5020307;28;46249;-59
2022/04/08 11:01:23;;;;;;;;;7.75;6.25;;;;;9.73;53.80;98968.00;5011194;28;45440;-60
2022/04/08 11:03:57;;;;;;;;;6.50;6.00;;;;;9.78;53.75;98962.59;5020399;28;45239;-60
2022/04/08 11:06:25;;;;;;;;;4.75;4.75;;;;;9.84;53.98;98948.38;5020092;28;45421;-60
2022/04/08 11:08:51;;;;;;;;;3.75;3.75;;;;;9.90;53.98;98975.22;5019053;28;45341;-59
2022/04/08 11:11:25;;;;;;;;;5.25;5.00;;;;;9.97;54.08;98978.44;5018868;28;45282;-59
2022/04/08 11:14:02;;;;;;;;;5.00;5.00;;;;;10.03;54.17;98980.84;5020610;28;45300;-59
2022/04/08 11:16:30;;;;;;;;;5.75;4.50;;;;;10.08;54.04;99006.91;5019207;28;45977;-59
2022/04/08 11:18:56;;;;;;;;;5.00;4.00;;;;;10.17;53.99;99019.66;5019905;28;48119;-59
2022/04/08 11:21:23;;;;;;;;;5.00;4.50;;;;;10.22;54.03;99025.56;5018805;28;45361;-59
2022/04/08 11:24:00;;;;;;;;;5.75;4.75;;;;;10.30;53.94;99013.91;5020201;28;45170;-60
2022/04/08 11:26:28;;;;;;;;;10.00;6.75;;;;;10.34;53.92;99003.22;5020118;28;45369;-61
2022/04/08 11:28:55;;;;;;;;;4.25;4.25;;;;;10.39;53.87;99009.19;5019900;28;45484;-60
2022/04/08 11:31:21;;;;;;;;;6.50;5.00;;;;;10.47;53.95;99015.91;5020015;28;45421;-60
2022/04/08 11:33:47;;;;;;;;;5.00;5.00;;;;;10.51;53.94;98999.09;5018759;28;45511;-60